Time;durP1;ratioP1;P1;durP2;ratioP2;P2;SDS_P1;SDS_P2;PMS_P1;PMS_P2;Temp;Humidity;BMP_temperature;BMP_pressure;BME280_temperature;BME280_humidity;BME280_pressure;Samples;Min_cycle;Max_cycle;Signal;HPM_P1;HPM_P2
2022/04/05 00:01:16;;;;;;;28.65;3.65;;;3.90;99.90;;;;;;5033177;28;20099;-67
2022/04/05 00:03:41;;;;;;;29.65;3.63;;;3.80;99.90;;;;;;5036738;28;20053;-68
2022/04/05 00:06:07;;;;;;;16.42;2.85;;;3.70;99.90;;;;;;5036662;28;20105;-67
2022/04/05 00:08:32;;;;;;;29.63;3.67;;;3.70;99.90;;;;;;5036661;28;20049;-67
2022/04/05 00:10:58;;;;;;;30.45;3.63;;;3.70;99.90;;;;;;5036549;28;20408;-67
2022/04/05 00:13:23;;;;;;;28.63;3.58;;;3.60;99.90;;;;;;5036551;28;20441;-67
2022/04/05 00:15:49;;;;;;;21.35;3.15;;;3.60;99.90;;;;;;5036549;28;20466;-68
2022/04/05 00:18:15;;;;;;;18.65;3.10;;;3.70;99.90;;;;;;5036394;28;20032;-68
2022/04/05 00:20:41;;;;;;;22.20;3.33;;;3.70;99.90;;;;;;5036815;28;20101;-68
2022/04/05 00:23:06;;;;;;;21.83;3.35;;;3.60;99.90;;;;;;5037024;28;20021;-68
2022/04/05 00:25:32;;;;;;;26.02;3.20;;;3.60;99.90;;;;;;5036683;28;20473;-67
2022/04/05 00:27:58;;;;;;;19.27;2.78;;;3.50;99.90;;;;;;5036199;28;20029;-67
2022/04/05 00:30:23;;;;;;;26.20;3.80;;;3.50;99.90;;;;;;5036306;28;20055;-68
2022/04/05 00:32:49;;;;;;;33.65;4.60;;;3.50;99.90;;;;;;5036204;28;20060;-67
2022/04/05 00:35:15;;;;;;;23.13;3.50;;;3.40;99.90;;;;;;5036743;28;20072;-67
2022/04/05 00:37:40;;;;;;;28.90;3.92;;;3.40;99.90;;;;;;5036136;28;20033;-67
2022/04/05 00:40:07;;;;;;;20.58;3.25;;;3.40;99.90;;;;;;5018197;28;20061;-67
2022/04/05 00:42:36;;;;;;;29.67;2.63;;;3.30;99.90;;;;;;5036010;28;20112;-67
2022/04/05 00:45:03;;;;;;;30.80;3.72;;;3.40;99.90;;;;;;5036258;28;20022;-67
2022/04/05 00:47:29;;;;;;;29.38;3.47;;;3.40;99.90;;;;;;5036375;28;20021;-67
2022/04/05 00:49:55;;;;;;;28.98;3.30;;;3.40;99.90;;;;;;5035825;28;20022;-67
2022/04/05 00:52:21;;;;;;;36.63;3.47;;;3.40;99.90;;;;;;5036111;28;20026;-67
2022/04/05 00:54:49;;;;;;;24.75;2.90;;;3.40;99.90;;;;;;5017950;28;20548;-67
2022/04/05 00:57:20;;;;;;;23.67;3.17;;;3.40;99.90;;;;;;5035808;28;20025;-67
2022/04/05 00:59:57;;;;;;;21.17;3.05;;;3.40;99.90;;;;;;5035953;28;20024;-67
2022/04/05 01:02:25;;;;;;;10.98;2.08;;;3.30;99.90;;;;;;5035846;28;20022;-67
2022/04/05 01:04:51;;;;;;;22.98;3.65;;;3.30;99.90;;;;;;5035605;28;20017;-67
2022/04/05 01:07:18;;;;;;;23.38;2.55;;;3.30;99.90;;;;;;5035640;28;20496;-67
2022/04/05 01:09:44;;;;;;;22.20;2.47;;;3.30;99.90;;;;;;5035375;28;20456;-67
2022/04/05 01:12:14;;;;;;;24.55;3.55;;;3.40;99.90;;;;;;5035492;28;20104;-67
2022/04/05 01:14:41;;;;;;;23.58;4.90;;;3.40;99.90;;;;;;5035687;28;20450;-67
2022/04/05 01:17:07;;;;;;;13.05;2.00;;;3.40;99.90;;;;;;5035431;28;20048;-67
2022/04/05 01:19:33;;;;;;;18.20;2.40;;;3.50;99.90;;;;;;5035249;28;20064;-67
2022/04/05 01:22:00;;;;;;;25.02;2.80;;;3.40;99.90;;;;;;5035326;28;20074;-67
2022/04/05 01:24:26;;;;;;;28.45;3.03;;;3.50;99.90;;;;;;5035575;28;20040;-67
2022/04/05 01:26:55;;;;;;;24.95;3.25;;;3.60;99.90;;;;;;5035261;28;20057;-67
2022/04/05 01:29:23;;;;;;;24.35;2.78;;;3.50;99.90;;;;;;5035104;28;20025;-67
2022/04/05 01:31:53;;;;;;;25.08;3.45;;;3.50;99.90;;;;;;5035119;28;20025;-67
2022/04/05 01:34:21;;;;;;;50.25;4.78;;;3.50;99.90;;;;;;5035146;28;20033;-67
2022/04/05 01:36:52;;;;;;;37.05;5.32;;;3.50;99.90;;;;;;5035013;28;20029;-67
2022/04/05 01:39:20;;;;;;;27.05;3.35;;;3.50;99.90;;;;;;5034877;28;20577;-67
2022/04/05 01:41:46;;;;;;;20.40;3.03;;;3.50;99.90;;;;;;5035259;28;20101;-67
2022/04/05 01:44:14;;;;;;;26.25;2.83;;;3.50;99.90;;;;;;5035139;28;20028;-67
2022/04/05 01:46:40;;;;;;;26.52;3.20;;;3.50;99.90;;;;;;5034846;28;20469;-67
2022/04/05 01:49:07;;;;;;;30.23;4.13;;;3.40;99.90;;;;;;5034738;28;20044;-67
2022/04/05 01:51:37;;;;;;;16.23;3.10;;;3.40;99.90;;;;;;5034827;28;20080;-67
2022/04/05 01:54:05;;;;;;;18.55;2.78;;;3.30;99.90;;;;;;5034976;28;20025;-67
2022/04/05 01:56:51;;;;;;;37.15;3.38;;;3.40;99.90;;;;;;5034816;28;20029;-67
2022/04/05 01:59:19;;;;;;;14.15;2.95;;;3.40;99.90;;;;;;5034294;28;20075;-67
2022/04/05 02:01:45;;;;;;;24.73;2.63;;;3.50;99.90;;;;;;5034503;28;20097;-67
2022/04/05 02:04:12;;;;;;;19.63;2.55;;;3.50;99.90;;;;;;5034784;28;20052;-67
2022/04/05 02:06:39;;;;;;;29.55;3.38;;;3.40;99.90;;;;;;5034495;28;20527;-67
2022/04/05 02:09:05;;;;;;;35.88;3.83;;;3.40;99.90;;;;;;5034468;28;20086;-67
2022/04/05 02:11:32;;;;;;;17.38;2.60;;;3.30;99.90;;;;;;5034691;28;20028;-67
2022/04/05 02:13:58;;;;;;;28.05;3.20;;;3.30;99.90;;;;;;5034582;28;20056;-67
2022/04/05 02:16:24;;;;;;;14.48;2.33;;;3.30;99.90;;;;;;5034263;28;20067;-67
2022/04/05 02:18:50;;;;;;;24.50;2.55;;;3.20;99.90;;;;;;5034116;28;20108;-67
2022/04/05 02:21:15;;;;;;;17.67;3.20;;;3.20;99.90;;;;;;5034205;28;20485;-67
2022/04/05 02:23:41;;;;;;;20.63;2.15;;;3.20;99.90;;;;;;5034139;28;20413;-67
2022/04/05 02:26:07;;;;;;;22.05;2.53;;;3.20;99.90;;;;;;5033970;28;20458;-67
2022/04/05 02:28:32;;;;;;;23.35;3.35;;;3.20;99.90;;;;;;5034235;28;20029;-67
2022/04/05 02:30:59;;;;;;;18.48;2.67;;;3.10;99.90;;;;;;5033960;28;20060;-67
2022/04/05 02:33:24;;;;;;;28.63;3.10;;;3.10;99.90;;;;;;5034268;28;20079;-67
2022/04/05 02:35:51;;;;;;;28.98;3.72;;;3.10;99.90;;;;;;5033920;28;20457;-67
2022/04/05 02:38:17;;;;;;;28.20;3.50;;;3.20;99.90;;;;;;5034034;28;20056;-68
2022/04/05 02:40:43;;;;;;;21.35;3.40;;;3.20;99.90;;;;;;5033955;28;20438;-68
2022/04/05 02:43:08;;;;;;;22.08;3.00;;;3.20;99.90;;;;;;5033855;28;20025;-67
2022/04/05 02:45:34;;;;;;;22.20;2.92;;;3.20;99.90;;;;;;5034673;28;20021;-67
2022/04/05 02:47:59;;;;;;;20.27;3.00;;;3.10;99.90;;;;;;5034011;28;20029;-68
2022/04/05 02:50:25;;;;;;;21.70;4.13;;;3.20;99.90;;;;;;5033878;28;20080;-67
2022/04/05 02:52:52;;;;;;;23.65;3.60;;;3.20;99.90;;;;;;5033993;28;20017;-67
2022/04/05 02:55:18;;;;;;;23.38;3.17;;;3.20;99.90;;;;;;5034221;28;20059;-67
2022/04/05 02:57:45;;;;;;;24.42;3.42;;;3.20;99.90;;;;;;5033709;28;20041;-67
2022/04/05 03:00:12;;;;;;;24.48;3.08;;;3.20;99.90;;;;;;5033442;28;20547;-67
2022/04/05 03:02:39;;;;;;;19.15;3.28;;;3.20;99.90;;;;;;5033553;28;20175;-67
2022/04/05 03:05:06;;;;;;;26.38;3.33;;;3.20;99.90;;;;;;5033504;28;20030;-67
2022/04/05 03:07:34;;;;;;;33.92;3.47;;;3.10;99.90;;;;;;5034006;28;20021;-67
2022/04/05 03:10:10;;;;;;;31.10;3.60;;;3.10;99.90;;;;;;5033251;28;20108;-67
2022/04/05 03:12:37;;;;;;;29.23;3.22;;;3.10;99.90;;;;;;5033459;28;20021;-67
2022/04/05 03:15:06;;;;;;;26.85;3.13;;;3.00;99.90;;;;;;5033375;28;20393;-67
2022/04/05 03:17:33;;;;;;;39.60;3.15;;;3.00;99.90;;;;;;5033935;28;20109;-67
2022/04/05 03:20:00;;;;;;;18.80;3.72;;;3.00;99.90;;;;;;5033220;28;20061;-67
2022/04/05 03:22:25;;;;;;;30.27;3.28;;;3.10;99.90;;;;;;5033311;28;20029;-67
2022/04/05 03:24:51;;;;;;;23.83;3.00;;;3.10;99.90;;;;;;5033570;28;20104;-67
2022/04/05 03:27:16;;;;;;;26.20;3.30;;;3.10;99.90;;;;;;5033512;28;20025;-67
2022/04/05 03:29:42;;;;;;;26.85;4.47;;;3.20;99.90;;;;;;5033427;28;20029;-67
2022/04/05 03:32:09;;;;;;;32.25;3.25;;;3.30;99.90;;;;;;5034006;28;20061;-67
2022/04/05 03:34:35;;;;;;;24.45;3.30;;;3.30;99.90;;;;;;5033426;28;20025;-67
2022/04/05 03:37:00;;;;;;;27.45;3.25;;;3.30;99.90;;;;;;5034395;28;20081;-67
2022/04/05 03:39:26;;;;;;;16.38;2.55;;;3.30;99.90;;;;;;5037146;28;20434;-67
2022/04/05 03:41:52;;;;;;;24.63;2.53;;;3.20;99.90;;;;;;5037159;28;20048;-67
2022/04/05 03:44:17;;;;;;;30.00;2.78;;;3.20;99.90;;;;;;5037193;28;20041;-67
2022/04/05 03:46:43;;;;;;;28.40;3.80;;;3.20;99.90;;;;;;5037122;28;20436;-67
2022/04/05 03:49:09;;;;;;;21.98;3.60;;;3.30;99.90;;;;;;5037024;28;20029;-67
2022/04/05 03:51:34;;;;;;;22.13;3.20;;;3.30;99.90;;;;;;5037285;28;20026;-67
2022/04/05 03:54:00;;;;;;;29.13;3.60;;;3.30;99.90;;;;;;5036964;28;20052;-67
2022/04/05 03:56:25;;;;;;;29.75;3.72;;;3.30;99.90;;;;;;5037084;28;20079;-67
2022/04/05 03:58:51;;;;;;;15.13;2.67;;;3.30;99.90;;;;;;5036984;28;20029;-67
2022/04/05 04:01:17;;;;;;;21.35;3.28;;;3.40;99.90;;;;;;5037102;28;20025;-67
2022/04/05 04:03:43;;;;;;;39.67;4.03;;;3.40;99.90;;;;;;5036790;28;20028;-67
2022/04/05 04:06:09;;;;;;;26.15;3.00;;;3.40;99.90;;;;;;5036751;28;20367;-67
2022/04/05 04:08:35;;;;;;;30.23;3.58;;;3.40;99.90;;;;;;5036482;28;20029;-67
2022/04/05 04:11:01;;;;;;;23.67;2.90;;;3.40;99.90;;;;;;5036658;28;20022;-67
2022/04/05 04:13:27;;;;;;;19.42;2.90;;;3.40;99.90;;;;;;5036885;28;20096;-67
2022/04/05 04:15:53;;;;;;;22.90;3.20;;;3.40;99.90;;;;;;5036566;28;20082;-67
2022/04/05 04:18:18;;;;;;;27.00;3.17;;;3.50;99.90;;;;;;5036514;28;20052;-67
2022/04/05 04:20:44;;;;;;;23.45;2.70;;;3.50;99.90;;;;;;5036535;28;20036;-67
2022/04/05 04:23:10;;;;;;;39.15;4.35;;;3.60;99.90;;;;;;5036986;28;20026;-67
2022/04/05 04:25:39;;;;;;;33.97;3.25;;;3.60;99.90;;;;;;5036398;28;20028;-67
2022/04/05 04:28:06;;;;;;;28.00;3.90;;;3.60;99.90;;;;;;5036798;28;20386;-67
2022/04/05 04:30:32;;;;;;;18.75;3.25;;;3.50;99.90;;;;;;5036316;28;20025;-67
2022/04/05 04:32:58;;;;;;;36.25;3.78;;;3.50;99.90;;;;;;5036616;28;20032;-67
2022/04/05 04:35:24;;;;;;;23.25;4.22;;;3.50;99.90;;;;;;5036388;28;20029;-67
2022/04/05 04:37:49;;;;;;;37.20;4.65;;;3.40;99.90;;;;;;5036178;28;20033;-67
2022/04/05 04:40:15;;;;;;;36.10;3.90;;;3.30;99.90;;;;;;5036007;28;20093;-67
2022/04/05 04:42:42;;;;;;;25.20;4.57;;;3.30;99.90;;;;;;5036359;28;20029;-67
2022/04/05 04:45:09;;;;;;;22.50;4.65;;;3.20;99.90;;;;;;5036071;28;20099;-67
2022/04/05 04:47:34;;;;;;;30.55;3.75;;;3.20;99.90;;;;;;5035567;28;20038;-67
2022/04/05 04:50:00;;;;;;;24.98;3.47;;;3.10;99.90;;;;;;5035909;28;20025;-67
2022/04/05 04:52:26;;;;;;;25.95;4.18;;;3.10;99.90;;;;;;5036143;28;20040;-67
2022/04/05 04:54:52;;;;;;;34.75;4.25;;;3.10;99.90;;;;;;5035868;28;20025;-67
2022/04/05 04:57:18;;;;;;;24.40;3.67;;;3.20;99.90;;;;;;5035796;28;20022;-67
2022/04/05 04:59:43;;;;;;;20.20;3.22;;;3.30;99.90;;;;;;5035588;28;20087;-67
2022/04/05 05:02:09;;;;;;;20.15;3.25;;;3.40;99.90;;;;;;5035742;28;20030;-67
2022/04/05 05:04:35;;;;;;;20.35;1.95;;;3.30;99.90;;;;;;5035924;28;20025;-67
2022/04/05 05:07:00;;;;;;;27.27;3.78;;;3.20;99.90;;;;;;5035610;28;20018;-67
2022/04/05 05:09:26;;;;;;;18.95;2.53;;;3.10;99.90;;;;;;5036484;28;20032;-67
2022/04/05 05:11:51;;;;;;;18.27;2.65;;;3.10;99.90;;;;;;5035835;28;20482;-67
2022/04/05 05:14:17;;;;;;;19.23;3.75;;;3.00;99.90;;;;;;5035568;28;20038;-67
2022/04/05 05:16:42;;;;;;;22.13;3.20;;;2.90;99.90;;;;;;5035942;28;20029;-67
2022/04/05 05:19:08;;;;;;;22.80;3.83;;;2.90;99.90;;;;;;5035299;28;20041;-67
2022/04/05 05:21:33;;;;;;;23.98;3.33;;;2.90;99.90;;;;;;5035375;28;20028;-67
2022/04/05 05:23:59;;;;;;;27.70;3.55;;;3.00;99.90;;;;;;5035286;28;20025;-67
2022/04/05 05:26:25;;;;;;;33.05;11.95;;;3.00;99.90;;;;;;5035507;28;20136;-68
2022/04/05 05:28:50;;;;;;;36.85;9.90;;;3.00;99.90;;;;;;5035126;28;20079;-67
2022/04/05 05:31:16;;;;;;;34.70;7.80;;;3.00;99.90;;;;;;5035373;28;20051;-67
2022/04/05 05:33:42;;;;;;;21.50;6.45;;;3.00;99.90;;;;;;5035725;28;20025;-67
2022/04/05 05:36:08;;;;;;;46.15;18.30;;;2.90;99.90;;;;;;5035090;28;20032;-67
2022/04/05 05:38:33;;;;;;;22.60;10.23;;;2.90;99.90;;;;;;5035463;28;20068;-67
2022/04/05 05:40:59;;;;;;;36.30;10.40;;;3.00;99.90;;;;;;5035274;28;20026;-67
2022/04/05 05:43:24;;;;;;;15.90;2.10;;;2.90;99.90;;;;;;5034974;28;20032;-67
2022/04/05 05:45:50;;;;;;;18.83;3.20;;;2.90;99.90;;;;;;5034937;28;20029;-67
2022/04/05 05:48:16;;;;;;;21.17;5.28;;;3.00;99.90;;;;;;5035031;28;20024;-67
2022/04/05 05:50:41;;;;;;;17.55;2.50;;;3.00;99.90;;;;;;5035074;28;20034;-67
2022/04/05 05:53:07;;;;;;;10.45;2.67;;;3.10;99.90;;;;;;5035061;28;20025;-67
2022/04/05 05:55:35;;;;;;;22.60;2.72;;;3.10;99.90;;;;;;5035099;28;20114;-67
2022/04/05 05:58:02;;;;;;;15.30;3.20;;;3.10;99.90;;;;;;5034874;28;20026;-68
2022/04/05 06:00:29;;;;;;;13.15;2.28;;;3.20;99.90;;;;;;5034004;28;20026;-67
2022/04/05 06:03:01;;;;;;;15.98;3.13;;;3.30;99.90;;;;;;5034498;28;20513;-68
2022/04/05 06:05:28;;;;;;;14.50;3.00;;;3.40;99.90;;;;;;5034543;28;20559;-68
2022/04/05 06:07:54;;;;;;;25.10;4.50;;;3.40;99.90;;;;;;5034535;28;20037;-67
2022/04/05 06:10:20;;;;;;;14.52;3.08;;;3.50;99.90;;;;;;5016526;28;20040;-67
2022/04/05 06:12:48;;;;;;;27.30;3.83;;;3.50;99.90;;;;;;5034405;28;20025;-67
2022/04/05 06:15:15;;;;;;;20.05;3.05;;;3.60;99.90;;;;;;5034644;28;20026;-67
2022/04/05 06:17:46;;;;;;;17.90;2.65;;;3.80;99.90;;;;;;5016691;28;20124;-68
2022/04/05 06:20:14;;;;;;;24.30;3.90;;;3.90;99.90;;;;;;5034056;28;20486;-67
2022/04/05 06:22:53;;;;;;;21.33;2.80;;;4.00;99.90;;;;;;5034204;28;20449;-67
2022/04/05 06:25:26;;;;;;;23.15;2.50;;;4.20;99.90;;;;;;5034497;28;20029;-67
2022/04/05 06:27:52;;;;;;;;;;;4.30;99.90;;;;;;5034775;28;20071;-67
2022/04/05 06:30:18;;;;;;;23.63;3.50;;;4.50;99.90;;;;;;5034032;28;19909;-67
2022/04/05 06:32:45;;;;;;;22.48;2.65;;;4.60;99.90;;;;;;5034051;28;20044;-67
2022/04/05 06:35:12;;;;;;;19.02;2.45;;;4.70;99.90;;;;;;5034004;28;20631;-67
2022/04/05 06:37:38;;;;;;;27.70;4.32;;;4.70;99.90;;;;;;5034001;28;20029;-68
2022/04/05 06:40:06;;;;;;;15.65;2.22;;;4.80;99.90;;;;;;5033793;28;20053;-67
2022/04/05 06:42:32;;;;;;;17.80;2.47;;;4.90;99.90;;;;;;5034135;28;20025;-67
2022/04/05 06:44:58;;;;;;;14.93;2.60;;;5.00;99.90;;;;;;5033803;28;20123;-67
2022/04/05 06:47:23;;;;;;;14.73;2.25;;;5.00;99.90;;;;;;5034016;28;20474;-67
2022/04/05 06:49:49;;;;;;;19.52;2.28;;;5.00;99.90;;;;;;5033664;28;20470;-67
2022/04/05 06:52:15;;;;;;;25.33;3.00;;;5.20;99.90;;;;;;5034264;28;20108;-67
2022/04/05 06:54:41;;;;;;;16.48;2.88;;;5.30;99.90;;;;;;5033956;28;20057;-67
2022/04/05 06:57:06;;;;;;;10.70;2.22;;;5.40;99.90;;;;;;5033910;28;20072;-67
2022/04/05 06:59:32;;;;;;;14.73;2.72;;;5.50;99.90;;;;;;5033746;28;20033;-67
2022/04/05 07:01:57;;;;;;;18.05;2.50;;;5.60;99.90;;;;;;5033582;28;20052;-67
2022/04/05 07:04:23;;;;;;;18.27;2.08;;;5.50;99.90;;;;;;5033635;28;20048;-67
2022/04/05 07:06:49;;;;;;;25.83;2.42;;;5.50;99.90;;;;;;5033506;28;20108;-67
2022/04/05 07:09:14;;;;;;;12.52;2.28;;;5.50;99.90;;;;;;5033691;28;20033;-67
2022/04/05 07:11:40;;;;;;;14.45;2.40;;;5.50;99.90;;;;;;5033655;28;20382;-67
2022/04/05 07:14:06;;;;;;;16.98;3.35;;;5.40;99.90;;;;;;5033674;28;20105;-68
2022/04/05 07:16:32;;;;;;;24.48;3.33;;;5.30;99.90;;;;;;5033366;28;20109;-68
2022/04/05 07:18:57;;;;;;;26.67;3.15;;;5.30;99.90;;;;;;5033586;28;20026;-67
2022/04/05 07:21:23;;;;;;;23.98;3.55;;;5.30;99.90;;;;;;5033371;28;20029;-67
2022/04/05 07:23:48;;;;;;;19.15;2.78;;;5.20;99.90;;;;;;5033320;28;20394;-67
2022/04/05 07:26:14;;;;;;;17.98;2.28;;;5.30;99.90;;;;;;5033261;28;20025;-67
2022/04/05 07:28:40;;;;;;;15.05;3.00;;;5.20;99.90;;;;;;5033523;28;20021;-68
2022/04/05 07:31:05;;;;;;;17.13;2.20;;;4.90;99.90;;;;;;5033251;28;20026;-67
2022/04/05 07:33:31;;;;;;;16.40;2.00;;;4.50;99.90;;;;;;5033424;28;20018;-67
2022/04/05 07:35:57;;;;;;;16.13;2.55;;;4.20;99.90;;;;;;5033384;28;20032;-67
2022/04/05 07:38:24;;;;;;;24.85;3.30;;;3.80;99.90;;;;;;5033367;28;20025;-67
2022/04/05 07:40:50;;;;;;;10.40;2.13;;;3.60;99.90;;;;;;5033090;28;20030;-67
2022/04/05 07:43:18;;;;;;;9.43;2.22;;;3.50;99.90;;;;;;5033126;28;20018;-67
2022/04/05 07:45:44;;;;;;;12.25;1.85;;;3.50;99.90;;;;;;5033117;28;20026;-67
2022/04/05 07:48:10;;;;;;;17.83;1.73;;;3.60;99.90;;;;;;5032954;28;20053;-67
2022/04/05 07:50:36;;;;;;;22.58;2.88;;;3.70;99.90;;;;;;5033074;28;20053;-67
2022/04/05 07:53:02;;;;;;;13.27;2.40;;;3.90;99.90;;;;;;5033025;28;20068;-67
2022/04/05 07:55:28;;;;;;;22.40;2.60;;;4.10;99.90;;;;;;5033260;28;20029;-67
2022/04/05 07:57:54;;;;;;;18.65;2.40;;;4.40;99.90;;;;;;5032993;28;20100;-67
2022/04/05 08:00:20;;;;;;;15.00;2.30;;;4.60;99.90;;;;;;5032860;28;20136;-67
2022/04/05 08:02:46;;;;;;;19.50;3.05;;;4.60;99.90;;;;;;5032945;28;20097;-67
2022/04/05 08:05:12;;;;;;;11.77;2.03;;;4.80;99.90;;;;;;5033469;28;20026;-68
2022/04/05 08:07:38;;;;;;;24.80;4.32;;;5.00;99.90;;;;;;5032893;28;20104;-68
2022/04/05 08:10:04;;;;;;;7.57;2.10;;;5.10;99.90;;;;;;5032789;28;20061;-68
2022/04/05 08:12:44;;;;;;;23.40;2.40;;;5.20;99.90;;;;;;5033124;28;20025;-68
2022/04/05 08:15:15;;;;;;;16.83;2.67;;;5.40;99.90;;;;;;5032784;28;20064;-68
2022/04/05 08:17:40;;;;;;;25.08;2.92;;;5.70;99.90;;;;;;5033105;28;20473;-67
2022/04/05 08:20:07;;;;;;;18.95;2.33;;;5.90;99.90;;;;;;5032644;28;20047;-67
2022/04/05 08:22:32;;;;;;;17.77;2.72;;;6.10;99.90;;;;;;5033187;28;20096;-67
2022/04/05 08:24:58;;;;;;;17.55;2.28;;;6.30;99.90;;;;;;5018713;28;20120;-67
2022/04/05 08:27:24;;;;;;;14.57;1.98;;;6.50;99.90;;;;;;5036374;28;20025;-68
2022/04/05 08:29:49;;;;;;;14.93;2.55;;;6.60;99.90;;;;;;5036354;28;20035;-68
2022/04/05 08:32:15;;;;;;;15.63;2.17;;;6.60;99.90;;;;;;5036317;28;20056;-67
2022/04/05 08:34:42;;;;;;;24.33;2.40;;;6.50;99.90;;;;;;5036294;28;20060;-67
2022/04/05 08:37:08;;;;;;;31.48;3.25;;;6.40;99.90;;;;;;5036230;28;20429;-67
2022/04/05 08:39:35;;;;;;;20.05;2.00;;;6.40;99.90;;;;;;5036154;28;20034;-68
2022/04/05 08:42:03;;;;;;;18.20;2.50;;;6.30;99.90;;;;;;5036384;28;20466;-68
2022/04/05 08:44:29;;;;;;;14.20;2.20;;;6.30;99.90;;;;;;5036322;28;20124;-68
2022/04/05 08:46:55;;;;;;;17.23;3.17;;;6.30;99.90;;;;;;5036057;28;20068;-68
2022/04/05 08:49:22;;;;;;;26.35;2.15;;;6.30;99.90;;;;;;5036066;28;20494;-67
2022/04/05 08:51:49;;;;;;;28.00;3.08;;;6.40;99.90;;;;;;5035975;28;20033;-68
2022/04/05 08:54:15;;;;;;;14.55;2.78;;;6.40;99.90;;;;;;5036212;28;20041;-68
2022/04/05 08:56:41;;;;;;;15.38;2.03;;;6.40;99.90;;;;;;5035971;28;20025;-67
2022/04/05 08:59:06;;;;;;;21.08;2.15;;;6.30;99.90;;;;;;5035709;28;20037;-68
2022/04/05 09:01:34;;;;;;;11.10;1.70;;;6.40;99.90;;;;;;5035785;28;20482;-67
2022/04/05 09:04:00;;;;;;;10.20;2.15;;;6.40;99.90;;;;;;5035708;28;20037;-67
2022/04/05 09:06:28;;;;;;;11.90;1.80;;;6.50;99.90;;;;;;5035712;28;20022;-67
2022/04/05 09:09:11;;;;;;;13.32;2.10;;;6.30;99.90;;;;;;5035442;28;20406;-67
2022/04/05 09:11:49;;;;;;;18.17;2.10;;;6.20;99.90;;;;;;5035612;28;20088;-67
2022/04/05 09:14:22;;;;;;;21.60;3.67;;;6.20;99.90;;;;;;5035726;28;20025;-67
2022/04/05 09:17:04;;;;;;;12.40;2.50;;;6.10;99.90;;;;;;5035780;28;20033;-67
2022/04/05 09:19:37;;;;;;;10.02;2.42;;;6.10;99.90;;;;;;5035394;28;20287;-68
2022/04/05 09:22:03;;;;;;;16.90;5.55;;;6.00;99.90;;;;;;5035509;28;20021;-67
2022/04/05 09:24:43;;;;;;;21.73;4.57;;;5.90;99.90;;;;;;5035292;28;20121;-67
2022/04/05 09:27:09;;;;;;;18.10;2.53;;;5.90;99.90;;;;;;5035298;28;20028;-67
2022/04/05 09:29:40;;;;;;;13.65;2.70;;;5.90;99.90;;;;;;5035377;28;20063;-67
2022/04/05 09:32:06;;;;;;;16.27;2.55;;;5.80;99.90;;;;;;5035213;28;20367;-67
2022/04/05 09:34:32;;;;;;;13.27;3.00;;;5.90;99.90;;;;;;5034372;28;20029;-67
2022/04/05 09:37:07;;;;;;;22.80;6.72;;;5.80;99.90;;;;;;5035334;28;20470;-67
2022/04/05 09:39:33;;;;;;;25.98;3.45;;;5.70;99.90;;;;;;5034965;28;20029;-67
2022/04/05 09:42:08;;;;;;;16.13;3.35;;;5.70;99.90;;;;;;5035288;28;20374;-67
2022/04/05 09:44:43;;;;;;;20.02;3.60;;;5.80;99.90;;;;;;5035002;28;20067;-67
2022/04/05 09:47:10;;;;;;;15.20;3.63;;;6.00;99.90;;;;;;5035178;28;20025;-67
2022/04/05 09:49:38;;;;;;;27.42;7.03;;;6.20;99.90;;;;;;5034754;28;20021;-67
2022/04/05 09:52:22;;;;;;;13.30;2.38;;;6.30;99.90;;;;;;5035373;28;20024;-67
2022/04/05 09:54:47;;;;;;;11.70;2.92;;;6.50;99.90;;;;;;5035267;28;20047;-67
2022/04/05 09:57:13;;;;;;;7.43;2.00;;;6.60;99.90;;;;;;5034915;28;20481;-67
2022/04/05 09:59:43;;;;;;;17.90;2.03;;;6.70;99.90;;;;;;5034626;28;20025;-67
2022/04/05 10:02:17;;;;;;;19.88;3.50;;;6.70;99.90;;;;;;5034863;28;20025;-67
2022/04/05 10:05:09;;;;;;;18.98;7.63;;;6.70;99.90;;;;;;5034612;28;20036;-67
2022/04/05 10:07:36;;;;;;;10.48;1.48;;;6.80;99.90;;;;;;5035079;28;20088;-67
2022/04/05 10:10:06;;;;;;;13.30;2.00;;;7.00;99.90;;;;;;5034469;28;20493;-67
2022/04/05 10:12:31;;;;;;;11.20;1.92;;;7.00;99.90;;;;;;5034434;28;20470;-67
2022/04/05 10:14:59;;;;;;;12.00;1.63;;;7.20;99.90;;;;;;5034381;28;20032;-67
2022/04/05 10:17:26;;;;;;;21.08;1.52;;;7.20;99.90;;;;;;5034624;28;20489;-67
2022/04/05 10:19:54;;;;;;;19.45;2.13;;;7.10;99.90;;;;;;5034129;28;20473;-67
2022/04/05 10:22:22;;;;;;;11.23;1.27;;;7.20;99.90;;;;;;5034217;28;20017;-67
2022/04/05 10:24:52;;;;;;;11.23;1.60;;;7.30;99.90;;;;;;5034214;28;20398;-67
2022/04/05 10:27:18;;;;;;;14.00;1.92;;;7.40;99.90;;;;;;5034448;28;20028;-67
2022/04/05 10:29:45;;;;;;;14.20;1.63;;;7.50;99.90;;;;;;5034079;28;20497;-67
2022/04/05 10:32:51;;;;;;;5.20;1.13;;;7.50;99.90;;;;;;5034313;28;20143;-67
2022/04/05 10:35:23;;;;;;;5.97;1.60;;;7.70;99.90;;;;;;5034601;28;20028;-67
2022/04/05 10:37:51;;;;;;;7.63;1.40;;;7.70;99.90;;;;;;5034250;28;20075;-67
2022/04/05 10:40:20;;;;;;;8.48;5.10;;;7.60;99.90;;;;;;5016046;28;20029;-67
2022/04/05 10:42:47;;;;;;;9.63;2.42;;;7.80;99.90;;;;;;5033934;28;20014;-67
2022/04/05 10:45:26;;;;;;;8.07;1.90;;;7.80;99.90;;;;;;5033559;28;20043;-67
2022/04/05 10:48:12;;;;;;;6.70;2.03;;;7.80;99.90;;;;;;5033798;28;20095;-67
2022/04/05 10:50:38;;;;;;;27.15;5.40;;;7.70;99.90;;;;;;5033735;28;20078;-67
2022/04/05 10:53:17;;;;;;;14.32;3.80;;;7.80;99.90;;;;;;5033704;28;20021;-68
2022/04/05 10:56:06;;;;;;;7.82;2.85;;;7.60;99.90;;;;;;5033987;28;20026;-67
2022/04/05 10:58:45;;;;;;;14.18;2.15;;;7.70;99.90;;;;;;5033460;28;20033;-67
2022/04/05 11:01:21;;;;;;;15.52;4.97;;;7.60;99.90;;;;;;5033530;28;20028;-67
2022/04/05 11:04:13;;;;;;;10.95;3.45;;;7.60;99.90;;;;;;5033897;28;20496;-67
2022/04/05 11:07:02;;;;;;;19.38;7.55;;;7.50;99.90;;;;;;5033656;28;20073;-67
2022/04/05 11:09:32;;;;;;;15.23;4.88;;;7.60;99.90;;;;;;5021358;28;20033;-68
2022/04/05 11:12:16;;;;;;;12.25;2.88;;;7.50;99.90;;;;;;5033721;28;20444;-68
2022/04/05 11:14:56;;;;;;;19.48;4.78;;;7.40;99.90;;;;;;5034043;28;20025;-69
2022/04/05 11:17:25;;;;;;;11.82;2.75;;;7.20;99.90;;;;;;5033744;28;20084;-69
2022/04/05 11:19:55;;;;;;;22.92;5.30;;;7.10;99.90;;;;;;5033419;28;20103;-68
2022/04/05 11:22:20;;;;;;;18.98;5.78;;;7.00;99.90;;;;;;5015666;28;20024;-68
2022/04/05 11:25:03;;;;;;;21.02;7.43;;;7.00;99.90;;;;;;5033287;28;20100;-68
2022/04/05 11:27:34;;;;;;;22.05;4.28;;;7.10;99.90;;;;;;5033663;28;20375;-68
2022/04/05 11:30:27;;;;;;;13.48;4.05;;;7.30;99.90;;;;;;5033266;28;20060;-69
2022/04/05 11:33:18;;;;;;;11.18;1.98;;;7.40;99.90;;;;;;5033225;28;20029;-68
2022/04/05 11:35:46;;;;;;;18.92;2.72;;;7.50;99.90;;;;;;5033472;28;20428;-68
2022/04/05 11:38:18;;;;;;;14.45;2.13;;;7.50;99.90;;;;;;5015403;28;20457;-68
2022/04/05 11:40:46;;;;;;;10.80;1.80;;;7.40;99.90;;;;;;5033477;28;20398;-68
2022/04/05 11:43:27;;;;;;;11.45;1.58;;;7.20;99.90;;;;;;5015495;28;20025;-69
2022/04/05 11:45:56;;;;;;;7.22;1.35;;;7.10;99.90;;;;;;5016029;28;20409;-69
2022/04/05 11:48:26;;;;;;;11.35;1.58;;;7.00;99.90;;;;;;5033363;28;20026;-68
2022/04/05 11:50:52;;;;;;;9.98;1.85;;;6.80;99.90;;;;;;5033111;28;20055;-68
2022/04/05 11:53:23;;;;;;;12.77;1.52;;;7.10;99.90;;;;;;5033146;28;20165;-68
2022/04/05 11:56:16;;;;;;;7.18;1.58;;;7.20;99.90;;;;;;5033356;28;20060;-69
2022/04/05 11:58:46;;;;;;;9.30;1.52;;;7.30;99.90;;;;;;5035391;28;20026;-68
2022/04/05 12:01:13;;;;;;;8.07;1.30;;;7.40;99.90;;;;;;5036948;28;20026;-68
2022/04/05 12:03:48;;;;;;;10.02;1.50;;;7.20;99.90;;;;;;5037138;28;20033;-68
2022/04/05 12:06:27;;;;;;;14.48;3.90;;;7.10;99.90;;;;;;5036844;28;20026;-68
2022/04/05 12:08:54;;;;;;;15.00;2.95;;;7.10;99.90;;;;;;5036794;28;20031;-68
2022/04/05 12:11:22;;;;;;;18.90;4.25;;;7.20;99.90;;;;;;5037271;28;20026;-68
2022/04/05 12:13:57;;;;;;;7.80;2.20;;;7.40;99.90;;;;;;5037046;28;20025;-68
2022/04/05 12:16:25;;;;;;;17.15;2.50;;;7.50;99.90;;;;;;5037342;28;20064;-68
2022/04/05 12:18:52;;;;;;;9.23;1.45;;;7.40;99.90;;;;;;5036532;28;20068;-69
2022/04/05 12:21:20;;;;;;;11.50;1.80;;;7.30;99.90;;;;;;5036748;28;20018;-68
2022/04/05 12:23:46;;;;;;;13.73;1.80;;;7.10;99.90;;;;;;5036518;28;20079;-68
2022/04/05 12:26:23;;;;;;;13.23;2.17;;;6.90;99.90;;;;;;5036764;28;20405;-69
2022/04/05 12:28:54;;;;;;;9.48;1.25;;;6.80;99.90;;;;;;5036662;28;20478;-68
2022/04/05 12:31:28;;;;;;;8.40;1.17;;;6.40;99.90;;;;;;5036443;28;20087;-68
2022/04/05 12:33:56;;;;;;;14.07;1.60;;;6.20;99.90;;;;;;5036680;28;20412;-68
2022/04/05 12:36:24;;;;;;;13.15;1.17;;;6.10;99.90;;;;;;5036562;28;20028;-68
2022/04/05 12:38:49;;;;;;;5.95;1.20;;;6.30;99.90;;;;;;5036101;28;20363;-68
2022/04/05 12:41:16;;;;;;;10.98;1.27;;;6.80;99.90;;;;;;5036179;28;20025;-68
2022/04/05 12:43:43;;;;;;;13.60;2.03;;;7.40;99.90;;;;;;5036166;28;20029;-69
2022/04/05 12:46:11;;;;;;;6.63;1.48;;;7.60;99.90;;;;;;5036110;28;20021;-68
2022/04/05 12:48:38;;;;;;;15.05;1.52;;;8.20;99.90;;;;;;5035990;28;20032;-69
2022/04/05 12:51:04;;;;;;;9.90;1.65;;;8.10;99.90;;;;;;5035963;28;20037;-68
2022/04/05 12:53:35;;;;;;;7.68;1.75;;;8.00;99.90;;;;;;5036004;28;20027;-68